createdAt,value
2022-08-08T00:00:55.782Z,102554.31
2022-08-08T00:05:43.457Z,102560.72
2022-08-08T00:11:18.356Z,102548.91
2022-08-08T00:16:24.276Z,102551.66
2022-08-08T00:21:46.199Z,102557.34
2022-08-08T00:26:52.880Z,102558.19
2022-08-08T00:32:16.201Z,102564.06
2022-08-08T00:38:01.374Z,102551.13
2022-08-08T00:43:22.717Z,102550.91
2022-08-08T00:49:00.997Z,102551.94
2022-08-08T00:54:20.717Z,102554.47
2022-08-08T01:00:06.627Z,102546.03
2022-08-08T01:05:59.289Z,102545.19
2022-08-08T01:11:22.931Z,102546.34
2022-08-08T01:16:47.901Z,102550.22
2022-08-08T01:22:36.953Z,102543.81
2022-08-08T01:27:43.451Z,102549.84
2022-08-08T01:33:27.919Z,102548.84
2022-08-08T01:38:54.644Z,102555.38
2022-08-08T01:44:08.010Z,102560.56
2022-08-08T01:49:37.823Z,102554.84
2022-08-08T01:55:46.044Z,102547.56
2022-08-08T02:00:57.536Z,102558.13
2022-08-08T02:06:05.980Z,102560.28
2022-08-08T02:11:52.929Z,102558.63
2022-08-08T02:17:03.637Z,102565.31
2022-08-08T02:22:33.784Z,102563.94
2022-08-08T02:27:42.721Z,102570.97
2022-08-08T02:33:12.774Z,102569.63
2022-08-08T02:38:25.439Z,102567.38
2022-08-08T02:44:37.207Z,102576.91
2022-08-08T02:49:47.323Z,102579.38
2022-08-08T02:55:20.754Z,102575.19
2022-08-08T03:01:03.492Z,102578.19
2022-08-08T03:06:34.777Z,102579.34
2022-08-08T03:12:06.046Z,102588.41
2022-08-08T03:17:39.898Z,102575.13
2022-08-08T03:22:47.589Z,102573.75
2022-08-08T03:27:49.361Z,102581.44
2022-08-08T03:33:56.958Z,102573.53
2022-08-08T03:38:58.198Z,102576.22
2022-08-08T03:44:15.142Z,102578.06
2022-08-08T03:49:57.160Z,102573.72
2022-08-08T03:55:01.499Z,102577.38
2022-08-08T04:00:18.181Z,102579.78
2022-08-08T04:05:35.155Z,102586.66
2022-08-08T04:10:41.537Z,102593.41
2022-08-08T04:16:03.279Z,102587.56
2022-08-08T04:21:19.818Z,102597.84
2022-08-08T04:26:35.428Z,102601.06
2022-08-08T04:31:58.980Z,102596.91
2022-08-08T04:37:03.861Z,102588.53
2022-08-08T04:42:11.425Z,102592.78
2022-08-08T04:47:19.780Z,102593.06
2022-08-08T04:52:25.386Z,102591.09
2022-08-08T04:57:41.023Z,102588.25
2022-08-08T05:02:44.464Z,102592.50
2022-08-08T05:07:50.051Z,102585.00
2022-08-08T05:13:00.222Z,102597.13
2022-08-08T05:18:13.654Z,102596.47
2022-08-08T05:23:17.836Z,102593.97
2022-08-08T05:28:48.282Z,102603.06
2022-08-08T05:33:49.546Z,102609.50
2022-08-08T05:38:54.426Z,102616.06
2022-08-08T05:44:21.396Z,102616.44
2022-08-08T05:49:32.907Z,102618.13
2022-08-08T05:54:50.096Z,102623.53
2022-08-08T06:00:01.474Z,102629.78
2022-08-08T06:05:35.199Z,102638.38
2022-08-08T06:10:46.810Z,102642.75
2022-08-08T06:15:54.575Z,102645.28
2022-08-08T06:21:32.658Z,102640.75
2022-08-08T06:26:52.267Z,102649.63
2022-08-08T06:32:11.534Z,102655.38
2022-08-08T06:37:24.829Z,102654.50
2022-08-08T06:42:38.918Z,102654.09
2022-08-08T06:47:52.511Z,102657.41
2022-08-08T06:53:13.787Z,102647.94
2022-08-08T06:58:30.755Z,102653.88
2022-08-08T07:04:35.505Z,102656.31
2022-08-08T07:09:21.052Z,102666.44
2022-08-08T07:14:53.637Z,102669.63
2022-08-08T07:20:07.508Z,102667.84
2022-08-08T07:25:17.436Z,102670.66
2022-08-08T07:30:25.936Z,102665.53
2022-08-08T07:35:35.903Z,102669.03
2022-08-08T07:40:40.083Z,102667.81
2022-08-08T07:46:05.631Z,102682.28
2022-08-08T07:51:23.023Z,102675.50
2022-08-08T07:56:37.074Z,102688.19
2022-08-08T08:02:34.282Z,102699.38
2022-08-08T08:07:11.021Z,102706.69
2022-08-08T08:12:35.608Z,102713.97
2022-08-08T08:17:49.000Z,102713.28
2022-08-08T08:22:59.278Z,102705.31
2022-08-08T08:28:03.072Z,102703.00
2022-08-08T08:33:05.946Z,102696.41
2022-08-08T08:38:24.114Z,102693.59
2022-08-08T08:43:36.065Z,102697.53
2022-08-08T08:48:49.539Z,102700.66
2022-08-08T08:53:59.897Z,102707.56
2022-08-08T08:59:15.696Z,102711.91
2022-08-08T09:04:38.662Z,102716.16
2022-08-08T09:09:55.284Z,102730.09
2022-08-08T09:15:02.654Z,102733.19
2022-08-08T09:21:57.184Z,102735.53
2022-08-08T09:25:58.397Z,102734.94
2022-08-08T09:31:15.610Z,102734.84
2022-08-08T09:36:22.813Z,102747.72
2022-08-08T09:42:14.628Z,102747.13
2022-08-08T09:47:25.892Z,102738.47
2022-08-08T09:52:55.853Z,102744.72
2022-08-08T09:58:26.330Z,102740.28
2022-08-08T10:03:40.885Z,102743.06
2022-08-08T10:08:50.521Z,102744.25
2022-08-08T10:13:57.672Z,102743.31
2022-08-08T10:19:06.079Z,102750.03
2022-08-08T10:24:12.167Z,102749.50
2022-08-08T10:29:58.142Z,102747.38
2022-08-08T10:35:11.735Z,102751.50
2022-08-08T10:40:26.329Z,102758.50
2022-08-08T10:45:57.043Z,102750.75
2022-08-08T10:51:14.284Z,102756.56
2022-08-08T10:56:27.814Z,102761.91
2022-08-08T11:01:39.196Z,102747.13
2022-08-08T11:06:41.965Z,102748.69
2022-08-08T11:12:05.657Z,102750.53
2022-08-08T11:17:15.865Z,102753.00
2022-08-08T11:22:29.945Z,102748.72
2022-08-08T11:27:37.075Z,102751.25
2022-08-08T11:32:42.875Z,102756.59
2022-08-08T11:38:36.036Z,102754.47
2022-08-08T11:43:19.669Z,102763.00
2022-08-08T11:48:27.851Z,102764.88
2022-08-08T11:53:42.825Z,102757.25
2022-08-08T11:59:06.119Z,102750.91
2022-08-08T12:04:08.914Z,102754.78
2022-08-08T12:09:17.370Z,102749.81
2022-08-08T12:14:28.953Z,102755.34
2022-08-08T12:19:50.677Z,102753.41
2022-08-08T12:24:56.292Z,102754.97
2022-08-08T12:30:00.090Z,102748.19
2022-08-08T12:35:17.681Z,102739.03
2022-08-08T12:40:25.364Z,102745.16
2022-08-08T12:45:58.544Z,102745.91
2022-08-08T12:51:02.750Z,102746.41
2022-08-08T12:56:19.449Z,102744.69
2022-08-08T13:01:38.151Z,102735.09
2022-08-08T13:06:55.420Z,102739.91
2022-08-08T13:12:22.153Z,102745.34
2022-08-08T13:18:09.518Z,102740.28
2022-08-08T13:22:51.562Z,102741.78
2022-08-08T13:28:03.314Z,102754.16
2022-08-08T13:33:05.073Z,102751.81
2022-08-08T13:38:13.102Z,102746.38
2022-08-08T13:43:18.427Z,102743.88
2022-08-08T13:48:25.236Z,102751.81
2022-08-08T13:53:33.981Z,102744.09
2022-08-08T13:58:57.252Z,102751.00
2022-08-08T14:04:04.838Z,102752.25
2022-08-08T14:09:24.402Z,102756.28
2022-08-08T14:14:58.935Z,102758.00
2022-08-08T14:20:15.048Z,102751.59
2022-08-08T14:25:31.195Z,102740.69
2022-08-08T14:30:36.525Z,102750.59
2022-08-08T14:35:41.515Z,102744.16
2022-08-08T14:40:50.059Z,102750.03
2022-08-08T14:46:02.863Z,102749.53
2022-08-08T14:51:07.240Z,102746.28
2022-08-08T14:56:13.020Z,102744.25
2022-08-08T15:01:23.497Z,102746.47
2022-08-08T18:13:51.996Z,102786.19
2022-08-08T18:18:57.791Z,102789.09
2022-08-08T18:24:00.297Z,102789.91
2022-08-08T18:29:08.587Z,102797.22
2022-08-08T18:34:27.002Z,102793.38
2022-08-08T18:39:35.065Z,102804.00
2022-08-08T18:44:41.967Z,102812.09
2022-08-08T18:49:58.948Z,102827.91
2022-08-08T18:55:09.764Z,102833.09
2022-08-08T19:00:20.366Z,102841.75
2022-08-08T19:05:32.088Z,102839.28
2022-08-08T19:10:37.604Z,102835.16
2022-08-08T19:15:45.568Z,102847.53
2022-08-08T19:20:50.764Z,102846.34
2022-08-08T19:26:02.483Z,102845.59
2022-08-08T19:31:20.084Z,102865.50
2022-08-08T19:36:27.388Z,102871.44
2022-08-08T19:41:33.424Z,102870.91
2022-08-08T19:46:40.205Z,102870.75
2022-08-08T19:51:43.397Z,102882.19
2022-08-08T19:56:49.066Z,102877.88
2022-08-08T20:02:03.326Z,102882.16
2022-08-08T20:08:30.738Z,102886.84
2022-08-08T20:12:32.854Z,102890.13
2022-08-08T20:17:38.790Z,102881.72
2022-08-08T20:22:43.859Z,102891.13
2022-08-08T20:27:50.519Z,102900.38
2022-08-08T20:32:56.229Z,102894.03
2022-08-08T20:38:01.727Z,102900.38
2022-08-08T20:43:16.274Z,102901.50
2022-08-08T20:48:26.098Z,102898.50
2022-08-08T20:53:58.124Z,102894.19
2022-08-08T20:58:54.463Z,102901.56
2022-08-08T21:04:00.051Z,102896.50
2022-08-08T21:09:06.064Z,102889.97
2022-08-08T21:14:07.808Z,102884.56
2022-08-08T21:19:11.892Z,102888.00
2022-08-08T21:24:29.984Z,102877.06
2022-08-08T21:30:05.456Z,102887.78
2022-08-08T21:34:56.883Z,102883.06
2022-08-08T21:40:21.119Z,102886.03
2022-08-08T21:48:01.969Z,102895.03
2022-08-08T21:51:03.557Z,102884.28
2022-08-08T21:56:26.658Z,102894.13
2022-08-08T22:01:40.351Z,102888.41
2022-08-08T22:06:45.205Z,102887.25
2022-08-08T22:11:56.543Z,102894.25
2022-08-08T22:17:10.369Z,102890.06
2022-08-08T22:22:19.130Z,102886.19
2022-08-08T22:27:56.059Z,102890.25
2022-08-08T22:32:49.248Z,102891.97
2022-08-08T22:37:54.659Z,102894.16
2022-08-08T22:42:56.834Z,102908.03
2022-08-08T22:47:59.160Z,102894.38
2022-08-08T22:54:29.513Z,102893.03
2022-08-08T22:58:39.029Z,102895.75
2022-08-08T23:03:53.591Z,102897.31
2022-08-08T23:09:00.471Z,102899.19
2022-08-08T23:14:02.763Z,102897.50
2022-08-08T23:19:04.710Z,102892.44
2022-08-08T23:24:13.186Z,102904.78
2022-08-08T23:29:27.118Z,102903.09
2022-08-08T23:34:34.738Z,102905.50
2022-08-08T23:39:49.215Z,102896.38
2022-08-08T23:44:53.694Z,102902.28
2022-08-08T23:50:03.133Z,102906.84
2022-08-08T23:55:23.230Z,102910.22
